Time;durP1;ratioP1;P1;durP2;ratioP2;P2;SDS_P1;SDS_P2;PMS_P1;PMS_P2;Temp;Humidity;BMP_temperature;BMP_pressure;BME280_temperature;BME280_humidity;BME280_pressure;Samples;Min_cycle;Max_cycle;Signal;HPM_P1;HPM_P2
2023/02/08 00:01:48;;;;;;;24.63;15.15;;;;;;;-5.40;52.29;95328.66;4985797;28;20038;-81
2023/02/08 00:04:13;;;;;;;27.75;15.52;;;;;;;-5.63;52.34;95335.69;4988325;28;20037;-80
2023/02/08 00:06:39;;;;;;;27.27;15.85;;;;;;;-5.95;52.78;95299.66;4986034;28;20037;-81
2023/02/08 00:09:06;;;;;;;28.20;16.25;;;;;;;-5.72;52.56;95321.19;4986640;28;20397;-80
2023/02/08 00:11:31;;;;;;;28.98;15.43;;;;;;;-5.81;52.56;95302.28;4986159;28;20406;-79
2023/02/08 00:13:56;;;;;;;27.98;15.85;;;;;;;-5.49;52.36;95342.69;4979553;28;20053;-80
2023/02/08 00:16:22;;;;;;;25.02;14.57;;;;;;;-5.64;51.76;95307.34;4987758;28;20025;-80
2023/02/08 00:18:47;;;;;;;25.30;14.88;;;;;;;-5.84;52.10;95307.03;4987993;28;20456;-79
2023/02/08 00:21:16;;;;;;;25.70;15.65;;;;;;;-5.78;52.33;95332.25;4987804;28;20048;-80
2023/02/08 00:23:42;;;;;;;26.85;15.98;;;;;;;-5.99;52.47;95313.97;4987912;28;20058;-80
2023/02/08 00:26:08;;;;;;;27.13;15.60;;;;;;;-5.89;52.74;95338.66;4987437;28;20441;-80
2023/02/08 00:28:33;;;;;;;23.77;13.65;;;;;;;-6.00;53.07;95333.06;4988383;28;20162;-79
2023/02/08 00:30:59;;;;;;;27.42;15.45;;;;;;;-6.27;53.07;95318.88;4985962;28;20045;-80
2023/02/08 00:33:24;;;;;;;25.77;14.90;;;;;;;-6.20;53.34;95312.03;4984413;28;20543;-80
2023/02/08 00:35:49;;;;;;;23.20;13.88;;;;;;;-6.12;53.22;95321.50;4989361;28;20046;-80
2023/02/08 00:38:15;;;;;;;26.40;14.68;;;;;;;-6.01;53.02;95337.47;4989469;28;20703;-80
2023/02/08 00:40:40;;;;;;;23.25;14.38;;;;;;;-5.93;52.91;95350.34;4991173;28;20049;-80
2023/02/08 00:43:05;;;;;;;24.48;14.57;;;;;;;-6.12;52.96;95324.91;4991094;28;20032;-80
2023/02/08 00:45:32;;;;;;;22.67;13.93;;;;;;;-5.85;52.91;95362.41;4993616;28;20066;-80
2023/02/08 00:47:57;;;;;;;24.20;14.07;;;;;;;-5.92;53.54;95372.69;4995538;28;20048;-80
2023/02/08 00:50:22;;;;;;;22.80;14.35;;;;;;;-5.94;53.29;95332.38;4991859;28;20038;-80
2023/02/08 00:52:48;;;;;;;23.80;14.93;;;;;;;-5.81;52.75;95342.97;4991901;28;20136;-81
2023/02/08 00:55:13;;;;;;;24.65;15.23;;;;;;;-5.75;52.67;95368.19;4989363;28;20097;-79
2023/02/08 00:57:39;;;;;;;25.90;15.25;;;;;;;-5.89;52.10;95332.66;4992415;28;20057;-81
2023/02/08 01:00:06;;;;;;;26.67;13.98;;;;;;;-5.72;52.83;95367.84;4987611;28;20073;-80
2023/02/08 01:02:32;;;;;;;28.33;14.63;;;;;;;-5.84;52.71;95331.16;4989843;28;20040;-82
2023/02/08 01:04:57;;;;;;;22.52;13.13;;;;;;;-5.54;52.30;95360.56;4991618;28;20042;-80
2023/02/08 01:07:23;;;;;;;26.42;15.18;;;;;;;-5.37;52.15;95366.41;4989918;28;20018;-80
2023/02/08 01:09:48;;;;;;;30.45;17.83;;;;;;;-5.34;51.80;95359.06;4989001;28;20030;-80
2023/02/08 01:12:13;;;;;;;33.25;18.05;;;;;;;-5.21;51.60;95355.03;4992760;28;20540;-81
2023/02/08 01:14:39;;;;;;;27.85;16.77;;;;;;;-5.06;51.37;95371.41;4992554;28;20046;-80
2023/02/08 01:17:06;;;;;;;25.33;15.25;;;;;;;-5.42;51.61;95312.44;4989254;28;20129;-80
2023/02/08 01:19:32;;;;;;;25.38;15.60;;;;;;;-5.34;51.54;95320.16;4990314;28;20610;-80
2023/02/08 01:21:58;;;;;;;26.38;15.73;;;;;;;-4.82;51.11;95365.16;4991429;28;20029;-80
2023/02/08 01:24:23;;;;;;;25.90;16.88;;;;;;;-4.75;51.33;95366.84;4989148;28;20040;-80
2023/02/08 01:26:48;;;;;;;27.60;14.93;;;;;;;-4.80;50.86;95374.38;4997084;28;20072;-78
2023/02/08 01:29:14;;;;;;;28.05;16.60;;;;;;;-4.88;51.24;95362.28;4997871;28;20030;-80
2023/02/08 01:31:41;;;;;;;26.65;15.27;;;;;;;-4.91;51.27;95367.03;4997662;28;20081;-79
2023/02/08 01:34:08;;;;;;;24.13;16.13;;;;;;;-4.95;51.38;95360.59;4993257;28;20057;-80
2023/02/08 01:36:35;;;;;;;24.90;14.35;;;;;;;-4.84;51.42;95356.75;4993731;28;20133;-81
2023/02/08 01:39:01;;;;;;;28.75;16.48;;;;;;;-4.71;50.99;95357.72;4993277;28;20061;-80
2023/02/08 01:41:31;;;;;;;28.13;17.65;;;;;;;-4.88;50.78;95330.38;4996172;28;20075;-80
2023/02/08 01:44:11;;;;;;;28.33;17.15;;;;;;;-4.76;50.60;95357.47;4998755;28;20065;-79
2023/02/08 01:46:39;;;;;;;29.98;16.65;;;;;;;-4.85;51.17;95355.94;4996152;28;20043;-80
2023/02/08 01:49:22;;;;;;;27.92;15.07;;;;;;;-4.85;51.40;95363.72;4990817;28;20034;-79
2023/02/08 01:51:56;;;;;;;26.77;16.23;;;;;;;-4.97;51.37;95336.59;4987936;28;20411;-79
2023/02/08 01:54:24;;;;;;;27.92;17.27;;;;;;;-5.71;51.38;95228.69;4989344;28;20377;-79
2023/02/08 01:56:49;;;;;;;27.08;16.85;;;;;;;-4.98;51.36;95371.34;4989310;28;20088;-80
2023/02/08 01:59:25;;;;;;;27.92;17.02;;;;;;;-5.18;51.72;95349.50;4990266;28;20030;-79
2023/02/08 02:01:53;;;;;;;29.88;18.50;;;;;;;-5.17;51.78;95351.13;4993323;28;20056;-79
2023/02/08 02:04:19;;;;;;;28.50;15.30;;;;;;;-5.15;51.96;95333.56;4996407;28;20034;-80
2023/02/08 02:06:47;;;;;;;30.70;18.00;;;;;;;-4.77;51.11;95363.63;4991758;28;20037;-80
2023/02/08 02:09:45;;;;;;;26.38;16.40;;;;;;;-4.68;51.04;95378.13;4992823;28;20053;-80
2023/02/08 02:12:12;;;;;;;30.33;17.15;;;;;;;-4.63;50.96;95385.34;4989803;28;20038;-81
2023/02/08 02:14:38;;;;;;;30.20;17.17;;;;;;;-4.82;51.02;95371.16;4988453;28;20041;-79
2023/02/08 02:17:04;;;;;;;30.50;17.67;;;;;;;-4.71;51.12;95378.50;4989557;28;20038;-80
2023/02/08 02:19:30;;;;;;;30.77;15.57;;;;;;;-4.66;51.20;95389.13;4986364;28;20046;-82
2023/02/08 02:22:06;;;;;;;30.48;17.20;;;;;;;-4.73;51.37;95392.66;4991797;28;20113;-80
2023/02/08 02:24:46;;;;;;;31.23;17.42;;;;;;;-4.92;51.59;95371.41;4998261;28;20036;-79
2023/02/08 02:27:42;;;;;;;31.20;18.10;;;;;;;-4.70;51.72;95400.88;4989739;28;20073;-79
2023/02/08 02:30:45;;;;;;;26.25;16.30;;;;;;;-4.62;51.79;95399.97;4989249;28;20046;-80
2023/02/08 02:33:26;;;;;;;26.73;15.75;;;;;;;-4.85;52.36;95401.84;4997040;28;20050;-79
2023/02/08 02:36:10;;;;;;;28.30;17.70;;;;;;;-4.81;52.90;95410.88;4988610;28;20039;-80
2023/02/08 02:38:44;;;;;;;28.58;16.73;;;;;;;-4.76;52.89;95417.16;4989221;28;20038;-79
2023/02/08 02:43:40;;;;;;;31.25;17.23;;;;;;;-4.64;52.94;95407.94;4988471;28;20137;-80
2023/02/08 02:44:13;;;;;;;33.83;16.45;;;;;;;-4.74;52.75;95373.66;4989923;28;20050;-80
2023/02/08 02:46:49;;;;;;;28.30;17.52;;;;;;;-4.35;52.15;95403.69;4989530;28;20045;-79
2023/02/08 02:49:25;;;;;;;29.20;18.30;;;;;;;-4.41;52.32;95405.22;4987350;28;20093;-81
2023/02/08 02:52:10;;;;;;;31.38;17.90;;;;;;;-4.25;51.96;95412.00;4990681;28;20030;-81
2023/02/08 02:54:53;;;;;;;33.63;18.65;;;;;;;-4.37;52.12;95396.09;4986505;28;20037;-80
2023/02/08 02:57:25;;;;;;;34.13;18.38;;;;;;;-4.45;52.31;95397.00;4988578;28;20501;-80
2023/02/08 02:59:50;;;;;;;29.38;17.95;;;;;;;-4.34;52.47;95415.72;4990302;28;20405;-80
2023/02/08 03:02:16;;;;;;;32.33;18.42;;;;;;;-4.38;52.54;95404.03;4989323;28;20042;-81
2023/02/08 03:04:41;;;;;;;32.28;18.25;;;;;;;-4.28;52.88;95420.16;5002830;28;20036;-80
2023/02/08 03:07:19;;;;;;;35.72;20.52;;;;;;;-4.31;52.71;95418.75;4985056;28;20029;-80
2023/02/08 03:09:53;;;;;;;32.47;18.90;;;;;;;-4.46;53.22;95413.56;4984594;28;20049;-81
2023/02/08 03:12:33;;;;;;;35.20;19.45;;;;;;;-4.31;53.00;95423.94;4991355;28;20060;-80
2023/02/08 03:15:28;;;;;;;36.15;20.35;;;;;;;-4.25;52.85;95422.41;4986364;28;20125;-79
2023/02/08 03:18:21;;;;;;;33.88;18.58;;;;;;;-4.31;53.26;95428.31;4987001;28;20542;-80
2023/02/08 03:21:26;;;;;;;32.95;17.85;;;;;;;-4.34;53.19;95421.69;4989667;28;20034;-80
2023/02/08 03:24:03;;;;;;;37.58;21.08;;;;;;;-4.49;53.39;95416.50;4990513;28;20042;-79
2023/02/08 03:26:53;;;;;;;35.50;20.23;;;;;;;-4.45;53.37;95414.38;4989589;28;20042;-79
2023/02/08 03:29:25;;;;;;;32.83;20.23;;;;;;;-4.51;53.29;95395.13;4988786;28;20116;-79
2023/02/08 03:32:07;;;;;;;32.70;18.75;;;;;;;-4.48;53.04;95392.16;4986849;28;20039;-79
2023/02/08 03:34:46;;;;;;;32.83;19.35;;;;;;;-4.50;53.04;95388.94;4989637;28;20048;-80
2023/02/08 03:37:26;;;;;;;36.35;20.77;;;;;;;-4.44;52.98;95403.78;4988671;28;20046;-81
2023/02/08 03:39:59;;;;;;;35.72;20.13;;;;;;;-4.40;52.85;95406.03;4985137;28;20149;-80
2023/02/08 03:42:27;;;;;;;36.55;20.73;;;;;;;-4.46;52.59;95413.56;4986315;28;20520;-81
2023/02/08 03:45:12;;;;;;;38.03;20.50;;;;;;;-4.67;52.49;95365.94;4988181;28;20038;-81
2023/02/08 03:47:41;;;;;;;34.75;20.40;;;;;;;-4.47;52.58;95408.53;4987489;28;20033;-82
2023/02/08 03:50:10;;;;;;;31.55;18.58;;;;;;;-4.76;52.80;95370.44;4988255;28;20080;-79
2023/02/08 03:52:37;;;;;;;35.30;20.15;;;;;;;-4.62;52.50;95387.78;4989386;28;20065;-81
2023/02/08 03:55:09;;;;;;;36.10;19.83;;;;;;;-4.39;52.02;95418.81;4987980;28;20105;-80
2023/02/08 03:57:42;;;;;;;36.30;22.83;;;;;;;-4.35;52.02;95417.50;4990831;28;20038;-79
2023/02/08 04:00:11;;;;;;;44.10;23.63;;;;;;;-4.48;51.97;95405.13;4987656;28;20516;-79
2023/02/08 04:02:42;;;;;;;38.47;22.27;;;;;;;-4.36;51.61;95422.88;4986884;28;20050;-80
2023/02/08 04:05:08;;;;;;;43.92;24.00;;;;;;;-4.57;51.49;95395.84;4986880;28;20034;-80
2023/02/08 04:07:34;;;;;;;62.05;31.52;;;;;;;-4.88;52.45;95397.84;4989368;28;20105;-80
2023/02/08 04:09:59;;;;;;;103.47;45.90;;;;;;;-4.57;52.25;95427.00;4987475;28;20469;-80
2023/02/08 04:12:24;;;;;;;122.13;50.75;;;;;;;-4.80;52.15;95407.31;4987694;28;20040;-80
2023/02/08 04:14:50;;;;;;;97.97;43.08;;;;;;;-4.81;52.07;95392.72;4988230;28;20041;-80
2023/02/08 04:17:15;;;;;;;59.47;29.02;;;;;;;-4.95;52.60;95405.53;4988330;28;20061;-81
2023/02/08 04:19:41;;;;;;;51.42;24.58;;;;;;;-4.54;52.48;95437.00;4988431;28;20042;-81
2023/02/08 04:22:06;;;;;;;36.92;21.33;;;;;;;-4.62;52.87;95447.50;4988318;28;20101;-80
2023/02/08 04:24:31;;;;;;;38.30;22.58;;;;;;;-5.06;53.19;95389.56;4987653;28;20038;-82
2023/02/08 04:26:57;;;;;;;39.75;21.85;;;;;;;-4.57;53.31;95437.38;4988919;28;20045;-81
2023/02/08 04:29:22;;;;;;;38.13;22.27;;;;;;;-4.59;53.42;95448.94;4990262;28;20425;-78
2023/02/08 04:31:48;;;;;;;42.20;22.80;;;;;;;-4.61;53.60;95456.09;4986818;28;20441;-80
2023/02/08 04:34:13;;;;;;;42.00;22.98;;;;;;;-4.63;53.77;95455.47;4988472;28;20587;-80
2023/02/08 04:36:38;;;;;;;36.25;22.63;;;;;;;-4.57;53.59;95452.16;4986896;28;20046;-80
2023/02/08 04:39:04;;;;;;;34.80;21.67;;;;;;;-4.55;53.85;95461.41;4988428;28;20389;-80
2023/02/08 04:41:29;;;;;;;37.88;22.20;;;;;;;-4.73;53.62;95414.19;4987703;28;20125;-80
2023/02/08 04:43:55;;;;;;;37.00;21.55;;;;;;;-4.96;53.66;95411.69;4988393;28;20601;-80
2023/02/08 04:46:20;;;;;;;43.55;24.27;;;;;;;-4.69;53.49;95419.84;4986567;28;20641;-81
2023/02/08 04:48:45;;;;;;;37.53;23.55;;;;;;;-4.62;53.79;95444.91;4989046;28;20026;-80
2023/02/08 04:51:11;;;;;;;45.83;25.52;;;;;;;-4.72;54.02;95457.34;4986249;28;20030;-81
2023/02/08 04:53:36;;;;;;;38.22;24.10;;;;;;;-4.68;53.50;95455.19;4986867;28;20069;-81
2023/02/08 04:56:01;;;;;;;39.17;23.45;;;;;;;-4.68;53.45;95440.44;4986703;28;20031;-79
2023/02/08 04:58:27;;;;;;;39.35;22.20;;;;;;;-4.65;52.83;95434.09;4986196;28;20112;-80
2023/02/08 05:00:52;;;;;;;36.90;21.42;;;;;;;-4.82;53.25;95451.59;4987215;28;20210;-81
2023/02/08 05:03:19;;;;;;;41.80;23.48;;;;;;;-4.65;52.92;95476.44;4986923;28;20046;-79
2023/02/08 05:05:44;;;;;;;43.55;23.27;;;;;;;-4.87;53.34;95456.53;4984429;28;20081;-81
2023/02/08 05:08:10;;;;;;;42.67;24.00;;;;;;;-4.88;53.02;95460.13;4987429;28;20138;-79
2023/02/08 05:10:35;;;;;;;41.38;22.67;;;;;;;-4.83;53.01;95472.56;4985373;28;20034;-80
2023/02/08 05:13:00;;;;;;;37.80;22.52;;;;;;;-4.58;52.70;95503.28;4990371;28;20511;-80
2023/02/08 05:15:26;;;;;;;42.78;24.60;;;;;;;-4.51;52.99;95500.78;4989781;28;20588;-79
2023/02/08 05:17:51;;;;;;;37.03;21.92;;;;;;;-4.41;52.80;95503.13;4985869;28;20046;-80
2023/02/08 05:20:17;;;;;;;35.90;21.63;;;;;;;-4.60;53.17;95494.88;4983780;28;20038;-80
2023/02/08 05:22:42;;;;;;;36.47;20.75;;;;;;;-4.37;52.79;95504.38;4989268;28;20038;-80
2023/02/08 05:25:08;;;;;;;35.30;20.88;;;;;;;-4.46;52.31;95486.28;4991086;28;20196;-82
2023/02/08 05:27:34;;;;;;;34.28;19.77;;;;;;;-4.32;52.37;95504.63;4989959;28;20065;-80
2023/02/08 05:29:59;;;;;;;40.38;22.67;;;;;;;-4.35;52.12;95481.63;4990969;28;20034;-79
2023/02/08 05:32:25;;;;;;;36.22;21.00;;;;;;;-4.48;51.89;95510.81;4990175;28;20053;-81
2023/02/08 05:34:51;;;;;;;34.45;19.42;;;;;;;-4.37;51.96;95510.38;4990452;28;20041;-80
2023/02/08 05:37:16;;;;;;;39.28;22.60;;;;;;;-4.97;53.42;95497.50;4991318;28;20042;-80
2023/02/08 05:39:41;;;;;;;37.10;22.17;;;;;;;-4.68;53.16;95518.31;4991598;28;20156;-80
2023/02/08 05:42:07;;;;;;;33.63;20.67;;;;;;;-4.45;52.31;95513.88;4990186;28;20869;-80
2023/02/08 05:44:32;;;;;;;36.03;21.58;;;;;;;-4.50;52.17;95511.00;4996726;28;20038;-81
2023/02/08 05:46:57;;;;;;;34.92;20.73;;;;;;;-4.31;51.97;95524.44;4992415;28;20042;-80
2023/02/08 05:49:23;;;;;;;34.45;19.63;;;;;;;-4.21;51.39;95524.97;4992796;28;20492;-79
2023/02/08 05:51:49;;;;;;;34.38;19.70;;;;;;;-4.18;51.12;95530.63;4991749;28;20547;-80
2023/02/08 05:54:15;;;;;;;36.58;20.63;;;;;;;-4.44;51.62;95510.28;4989206;28;20053;-81
2023/02/08 05:56:40;;;;;;;35.90;20.45;;;;;;;-4.37;51.70;95530.34;4988326;28;20053;-80
2023/02/08 05:59:06;;;;;;;32.85;19.55;;;;;;;-4.59;51.59;95486.13;4989197;28;20042;-79
2023/02/08 06:01:31;;;;;;;42.28;22.85;;;;;;;-4.44;51.38;95515.47;4990043;28;20484;-79
2023/02/08 06:03:59;;;;;;;43.03;24.75;;;;;;;-4.36;51.47;95527.56;4988866;28;20017;-79
2023/02/08 06:06:24;;;;;;;49.50;26.83;;;;;;;-4.37;51.43;95525.16;4989402;28;20533;-80
2023/02/08 06:08:49;;;;;;;48.75;28.58;;;;;;;-4.31;51.19;95535.63;4990260;28;20080;-81
2023/02/08 06:11:15;;;;;;;48.55;26.67;;;;;;;-4.29;51.25;95522.47;4989896;28;20078;-81
2023/02/08 06:13:41;;;;;;;34.08;22.92;;;;;;;-4.31;51.05;95499.28;4989467;28;20037;-82
2023/02/08 06:16:06;;;;;;;41.22;22.95;;;;;;;-4.10;50.59;95527.13;4989463;28;20155;-81
2023/02/08 06:18:32;;;;;;;37.17;23.70;;;;;;;-4.30;50.36;95506.09;4985378;28;20031;-80
2023/02/08 06:20:57;;;;;;;38.72;21.77;;;;;;;-4.16;50.78;95527.84;4984523;28;20500;-81
2023/02/08 06:23:23;;;;;;;36.38;21.38;;;;;;;-4.11;50.44;95535.91;5000435;28;20494;-81
2023/02/08 06:25:48;;;;;;;33.35;20.13;;;;;;;-4.07;49.83;95505.97;4989243;28;20030;-79
2023/02/08 06:28:14;;;;;;;36.63;19.63;;;;;;;-3.97;49.80;95537.69;4986271;28;20041;-81
2023/02/08 06:30:40;;;;;;;32.28;19.25;;;;;;;-4.03;49.43;95508.03;4990556;28;20033;-81
2023/02/08 06:33:05;;;;;;;29.05;17.98;;;;;;;-3.84;49.50;95529.22;4985241;28;20832;-80
2023/02/08 06:35:31;;;;;;;32.97;19.10;;;;;;;-3.82;49.24;95535.88;4986282;28;20088;-79
2023/02/08 06:37:57;;;;;;;37.30;20.63;;;;;;;-3.93;49.81;95536.34;4986513;28;20037;-79
2023/02/08 06:40:23;;;;;;;41.70;21.65;;;;;;;-4.03;50.17;95522.81;4987340;28;20464;-80
2023/02/08 06:42:49;;;;;;;38.65;20.73;;;;;;;-4.02;49.87;95519.22;4986915;28;20029;-81
2023/02/08 06:45:16;;;;;;;38.53;21.98;;;;;;;-3.85;49.47;95545.81;4987082;28;20046;-80
2023/02/08 06:47:42;;;;;;;33.42;20.35;;;;;;;-3.83;49.02;95531.66;4986519;28;20081;-80
2023/02/08 06:50:08;;;;;;;37.53;23.58;;;;;;;-4.36;49.88;95548.34;4978363;28;20749;-81
2023/02/08 06:52:34;;;;;;;44.05;25.75;;;;;;;-4.61;51.08;95560.78;4986698;28;20772;-80
2023/02/08 06:54:59;;;;;;;42.75;25.20;;;;;;;-4.65;51.34;95548.31;4985448;28;20117;-80
2023/02/08 06:57:24;;;;;;;36.65;21.10;;;;;;;-4.50;50.15;95552.56;4986734;28;20050;-79
2023/02/08 06:59:50;;;;;;;36.97;21.65;;;;;;;-4.32;50.19;95560.00;4986711;28;20034;-80
2023/02/08 07:02:19;;;;;;;32.22;20.63;;;;;;;-4.20;49.94;95556.00;4978935;28;20046;-81
2023/02/08 07:04:44;;;;;;;34.33;20.50;;;;;;;-4.09;49.42;95552.09;4981434;28;20121;-80
2023/02/08 07:07:14;;;;;;;41.67;24.35;;;;;;;-4.40;50.07;95556.69;4987741;28;21026;-79
2023/02/08 07:09:40;;;;;;;42.67;24.60;;;;;;;-4.43;50.67;95563.03;4987525;28;20042;-81
2023/02/08 07:12:05;;;;;;;40.03;22.90;;;;;;;-4.52;50.72;95528.53;4981920;28;20049;-80
2023/02/08 07:14:33;;;;;;;37.47;22.38;;;;;;;-4.55;50.40;95521.13;4984880;28;20928;-79
2023/02/08 07:16:59;;;;;;;37.42;22.35;;;;;;;-4.22;49.80;95559.72;4983375;28;20142;-78
2023/02/08 07:19:24;;;;;;;39.67;22.17;;;;;;;-4.48;49.17;95492.63;4984785;28;20580;-78
2023/02/08 07:21:50;;;;;;;39.35;22.90;;;;;;;-3.99;48.97;95573.44;4982192;28;20030;-78
2023/02/08 07:24:15;;;;;;;38.65;23.27;;;;;;;-3.91;49.56;95577.75;4986888;28;20025;-80
2023/02/08 07:26:41;;;;;;;38.40;22.15;;;;;;;-4.04;49.13;95584.38;4980842;28;20408;-80
2023/02/08 07:29:06;;;;;;;35.65;20.58;;;;;;;-4.30;49.91;95578.00;4976883;28;20045;-80
2023/02/08 07:31:31;;;;;;;39.53;22.00;;;;;;;-4.58;50.14;95576.00;4981390;28;20481;-80
2023/02/08 07:33:58;;;;;;;38.53;22.77;;;;;;;-4.95;51.68;95588.97;4983290;28;20062;-80
2023/02/08 07:36:24;;;;;;;45.75;25.00;;;;;;;-5.80;53.29;95598.53;4991361;28;20612;-81
2023/02/08 07:38:49;;;;;;;45.67;25.60;;;;;;;-5.94;53.15;95542.25;4982329;28;20125;-81
2023/02/08 07:41:15;;;;;;;49.65;28.83;;;;;;;-5.74;52.96;95566.78;4987282;28;20049;-78
2023/02/08 07:43:41;;;;;;;48.47;27.55;;;;;;;-5.61;53.85;95569.59;5002887;28;20441;-79
2023/02/08 07:46:19;;;;;;;45.97;27.15;;;;;;;-5.19;53.11;95586.56;4984709;28;20076;-80
2023/02/08 07:48:45;;;;;;;44.65;25.98;;;;;;;-4.98;51.57;95578.94;4985675;28;20054;-80
2023/02/08 07:51:12;;;;;;;44.38;25.55;;;;;;;-4.71;51.18;95599.16;4987028;28;20083;-79
2023/02/08 07:53:38;;;;;;;47.75;27.02;;;;;;;-4.36;50.49;95602.09;4987460;28;20038;-79
2023/02/08 07:56:04;;;;;;;52.45;28.75;;;;;;;-4.61;50.96;95594.53;4988416;28;20041;-79
2023/02/08 07:58:29;;;;;;;47.55;27.25;;;;;;;-4.58;50.97;95576.00;4986077;28;20425;-81
2023/02/08 08:00:55;;;;;;;46.75;26.92;;;;;;;-5.31;52.57;95586.94;4989873;28;20026;-79
2023/02/08 08:03:20;;;;;;;47.75;28.05;;;;;;;-5.73;54.07;95570.97;4988237;28;20099;-80
2023/02/08 08:05:46;;;;;;;49.72;27.92;;;;;;;-5.44;53.11;95571.16;4986580;28;20046;-80
2023/02/08 08:08:12;;;;;;;47.60;28.20;;;;;;;-4.85;51.70;95568.78;4987790;28;20084;-80
2023/02/08 08:10:38;;;;;;;46.55;26.92;;;;;;;-4.88;52.41;95590.69;4986295;28;20038;-81
2023/02/08 08:13:03;;;;;;;41.67;25.20;;;;;;;-4.76;50.43;95536.56;4980176;28;20117;-81
2023/02/08 08:15:29;;;;;;;44.30;25.50;;;;;;;-4.25;50.23;95586.09;4978231;28;20034;-80
2023/02/08 08:17:55;;;;;;;48.30;27.48;;;;;;;-4.11;49.49;95551.50;4983925;28;20053;-80
2023/02/08 08:20:20;;;;;;;47.67;25.88;;;;;;;-4.26;50.22;95579.28;4981082;28;20049;-80
2023/02/08 08:22:46;;;;;;;46.47;28.90;;;;;;;-3.73;49.16;95586.78;4983180;28;20524;-81
2023/02/08 08:25:15;;;;;;;44.08;26.75;;;;;;;-3.59;48.19;95585.16;4983404;28;20038;-82
2023/02/08 08:27:40;;;;;;;50.47;25.67;;;;;;;-3.87;49.58;95582.41;4987058;28;20046;-80
2023/02/08 08:30:08;;;;;;;44.13;26.27;;;;;;;-3.46;48.14;95571.50;4979257;28;20050;-81
2023/02/08 08:32:34;;;;;;;43.90;26.20;;;;;;;-3.56;48.32;95585.56;4982518;28;20502;-81
2023/02/08 08:34:59;;;;;;;43.10;26.65;;;;;;;-3.86;49.15;95565.81;4981778;28;21378;-83
2023/02/08 08:37:24;;;;;;;45.35;25.30;;;;;;;-3.31;48.10;95565.25;4982445;28;20141;-81
2023/02/08 08:39:50;;;;;;;46.05;26.45;;;;;;;-3.38;47.87;95585.19;4985914;28;20097;-81
2023/02/08 08:42:15;;;;;;;46.90;28.75;;;;;;;-3.28;48.08;95585.72;4985121;28;20159;-81
2023/02/08 08:44:41;;;;;;;47.60;27.02;;;;;;;-3.37;48.51;95593.81;4978368;28;20035;-81
2023/02/08 08:47:08;;;;;;;43.75;25.88;;;;;;;-3.94;49.56;95597.09;4980849;28;20088;-81
2023/02/08 08:49:33;;;;;;;46.25;24.98;;;;;;;-4.58;50.46;95596.75;4979517;28;20085;-80
2023/02/08 08:51:58;;;;;;;49.10;25.52;;;;;;;-4.68;51.17;95575.44;4980305;28;20026;-81
2023/02/08 08:54:24;;;;;;;41.30;24.17;;;;;;;-4.80;50.17;95569.06;4974993;28;20042;-82
2023/02/08 08:56:49;;;;;;;44.75;24.42;;;;;;;-4.79;50.60;95601.84;4982871;28;20935;-81
2023/02/08 08:59:15;;;;;;;38.55;21.70;;;;;;;-5.12;51.64;95588.28;4984711;28;20038;-82
2023/02/08 09:01:41;;;;;;;35.28;19.73;;;;;;;-5.53;51.44;95600.69;4981056;28;20038;-81
2023/02/08 09:04:07;;;;;;;38.55;22.52;;;;;;;-5.21;51.44;95598.88;4983468;28;20145;-80
2023/02/08 09:06:34;;;;;;;43.13;23.95;;;;;;;-5.31;51.83;95594.72;4985739;28;20080;-80
2023/02/08 09:09:00;;;;;;;35.13;20.55;;;;;;;-5.19;51.46;95586.56;4990690;28;20034;-81
2023/02/08 09:11:25;;;;;;;43.92;22.52;;;;;;;-5.17;51.82;95619.09;4987478;28;20037;-80
2023/02/08 09:13:52;;;;;;;45.95;25.70;;;;;;;-5.28;52.16;95603.16;4989806;28;20568;-83
2023/02/08 09:16:18;;;;;;;47.30;26.08;;;;;;;-5.27;51.82;95612.56;4988986;28;20022;-80
2023/02/08 09:18:44;;;;;;;50.15;28.33;;;;;;;-5.48;52.83;95639.06;4989704;28;20022;-80
2023/02/08 09:21:11;;;;;;;45.60;24.08;;;;;;;-5.49;52.74;95638.25;4991812;28;20033;-81
2023/02/08 09:23:37;;;;;;;60.70;32.22;;;;;;;-5.61;53.77;95637.00;4989437;28;20096;-81
2023/02/08 09:26:04;;;;;;;49.40;24.80;;;;;;;-5.64;53.41;95637.34;4989673;28;20854;-80
2023/02/08 09:28:30;;;;;;;54.80;27.92;;;;;;;-5.66;54.23;95641.88;4988647;28;20508;-80
2023/02/08 09:30:55;;;;;;;54.30;27.75;;;;;;;-5.67;53.70;95629.94;4992753;28;20034;-80
2023/02/08 09:33:20;;;;;;;48.22;25.05;;;;;;;-5.48;52.81;95629.50;4988149;28;20038;-80
2023/02/08 09:35:46;;;;;;;33.55;19.13;;;;;;;-5.75;52.35;95633.34;4988850;28;20034;-82
2023/02/08 09:38:11;;;;;;;43.55;20.90;;;;;;;-5.97;53.01;95648.81;4992162;28;20050;-82
2023/02/08 09:40:46;;;;;;;46.28;22.35;;;;;;;-6.29;54.00;95631.56;4991235;28;20492;-80
2023/02/08 09:43:16;;;;;;;;;;;;;;;-6.48;53.94;95643.06;4987825;28;20030;-80
2023/02/08 09:46:16;;;;;;;34.10;20.42;;;;;;;-6.67;54.31;95620.13;4993219;28;20363;-81
2023/02/08 09:48:42;;;;;;;34.17;19.15;;;;;;;-6.33;54.82;95644.03;4988769;28;20046;-80
2023/02/08 09:51:10;;;;;;;39.97;21.15;;;;;;;-6.18;54.41;95637.22;4987890;28;20046;-80
2023/02/08 09:53:42;;;;;;;35.38;18.67;;;;;;;-6.23;54.37;95636.09;4990695;28;20042;-80
2023/02/08 09:56:18;;;;;;;40.13;20.10;;;;;;;-6.09;54.38;95634.59;4996027;28;20103;-80
2023/02/08 09:58:48;;;;;;;;;;;;;;;-6.08;54.17;95631.84;4990146;28;20035;-80
2023/02/08 10:01:21;;;;;;;32.33;16.75;;;;;;;-6.03;53.40;95633.94;4990976;28;19917;-80
2023/02/08 10:03:49;;;;;;;30.55;17.85;;;;;;;-5.86;53.53;95636.28;4992205;28;20030;-81
2023/02/08 10:06:17;;;;;;;34.78;17.58;;;;;;;-5.73;53.48;95624.59;4990531;28;20473;-80
2023/02/08 10:08:45;;;;;;;35.00;20.33;;;;;;;-5.73;54.29;95624.59;4988871;28;20038;-79
2023/02/08 10:11:42;;;;;;;47.17;22.85;;;;;;;-5.65;53.95;95615.00;4990361;28;20504;-79
2023/02/08 10:14:32;;;;;;;40.38;22.50;;;;;;;-5.59;53.21;95622.09;4988167;28;20580;-81
2023/02/08 10:17:16;;;;;;;36.20;21.45;;;;;;;-5.55;53.34;95613.00;4996540;28;20494;-80
2023/02/08 10:20:19;;;;;;;39.83;21.30;;;;;;;-5.58;52.92;95628.91;4988018;28;20033;-81
2023/02/08 10:22:53;;;;;;;35.33;18.52;;;;;;;-5.47;53.14;95612.19;4989111;28;20142;-79
2023/02/08 10:25:21;;;;;;;31.50;17.98;;;;;;;-5.54;52.79;95617.22;4986688;28;20065;-80
2023/02/08 10:28:02;;;;;;;31.13;16.88;;;;;;;-5.67;52.06;95622.16;4988012;28;20045;-79
2023/02/08 10:30:37;;;;;;;31.60;16.20;;;;;;;-5.99;52.58;95612.69;4987251;28;20045;-80
2023/02/08 10:33:16;;;;;;;33.90;18.58;;;;;;;-5.97;52.19;95615.13;4989514;28;20046;-79
2023/02/08 10:35:47;;;;;;;31.73;17.20;;;;;;;-6.03;53.45;95582.94;4987275;28;20517;-79
2023/02/08 10:38:18;;;;;;;34.90;20.27;;;;;;;-5.70;53.00;95627.66;4989301;28;20866;-79
2023/02/08 10:40:46;;;;;;;29.50;18.80;;;;;;;-6.10;52.99;95581.97;4989318;28;20270;-80
2023/02/08 10:43:29;;;;;;;34.60;19.58;;;;;;;-5.86;53.19;95619.97;4989494;28;20018;-81
2023/02/08 10:46:04;;;;;;;35.95;19.75;;;;;;;-5.88;53.39;95620.13;4982272;28;20112;-79
2023/02/08 10:48:38;;;;;;;37.67;20.85;;;;;;;-5.88;53.35;95616.72;4985597;28;20065;-80
2023/02/08 10:51:04;;;;;;;38.47;21.05;;;;;;;-5.55;53.28;95607.81;4988573;28;20152;-81
2023/02/08 10:53:30;;;;;;;35.63;18.17;;;;;;;-5.19;52.48;95607.31;4986839;28;20041;-80
2023/02/08 10:55:55;;;;;;;32.95;17.27;;;;;;;-5.42;51.23;95618.44;4986795;28;20038;-80
2023/02/08 10:58:25;;;;;;;26.48;15.90;;;;;;;-5.54;50.89;95606.03;4983687;28;20033;-79
2023/02/08 11:00:51;;;;;;;28.08;17.30;;;;;;;-5.43;50.82;95603.88;4985331;28;20056;-80
2023/02/08 11:03:21;;;;;;;33.65;19.08;;;;;;;-5.21;50.87;95624.81;4982102;28;20157;-79
2023/02/08 11:05:47;;;;;;;35.42;17.45;;;;;;;-5.16;50.70;95607.75;4984855;28;20073;-79
2023/02/08 11:08:21;;;;;;;32.10;18.05;;;;;;;-5.23;50.81;95621.59;4985146;28;20138;-81
2023/02/08 11:11:04;;;;;;;29.27;16.17;;;;;;;-5.38;49.95;95621.53;4989232;28;20121;-79
2023/02/08 11:13:39;;;;;;;30.83;17.08;;;;;;;-5.21;49.14;95614.44;4994201;28;20056;-79
2023/02/08 11:16:06;;;;;;;;;;;;;;;-5.27;49.86;95628.13;4990868;28;20037;-79
2023/02/08 11:18:36;;;;;;;32.42;17.35;;;;;;;-5.27;50.73;95589.22;4989153;28;20181;-80
2023/02/08 11:21:06;;;;;;;30.00;16.33;;;;;;;-5.39;50.52;95599.97;4989178;28;20172;-80
2023/02/08 11:23:35;;;;;;;31.88;18.08;;;;;;;-5.08;50.40;95612.09;4989315;28;20577;-82
2023/02/08 11:26:39;;;;;;;37.97;18.45;;;;;;;-5.03;49.51;95613.22;4987266;28;20046;-80